Time;durP1;ratioP1;P1;durP2;ratioP2;P2;SDS_P1;SDS_P2;PMS_P1;PMS_P2;Temp;Humidity;BMP_temperature;BMP_pressure;BME280_temperature;BME280_humidity;BME280_pressure;Samples;Min_cycle;Max_cycle;Signal;HPM_P1;HPM_P2
2023/05/03 00:01:08;;;;;;;8.63;4.10;;;;;;;;;;5014516;28;20057;-72
2023/05/03 00:03:34;;;;;;;9.60;4.32;;;;;;;;;;5016109;28;20131;-73
2023/05/03 00:06:13;;;;;;;7.88;4.20;;;;;;;;;;5015066;28;20097;-73
2023/05/03 00:08:39;;;;;;;7.68;3.85;;;;;;;;;;5015638;28;20081;-73
2023/05/03 00:11:06;;;;;;;10.35;3.83;;;;;;;;;;5013144;28;20072;-73
2023/05/03 00:13:32;;;;;;;8.65;4.00;;;;;;;;;;5023374;28;20045;-73
2023/05/03 00:15:58;;;;;;;8.02;4.15;;;;;;;;;;5035864;28;20041;-73
2023/05/03 00:18:24;;;;;;;11.80;4.32;;;;;;;;;;5020404;28;20058;-72
2023/05/03 00:20:50;;;;;;;7.70;4.03;;;;;;;;;;4998051;28;20045;-73
2023/05/03 00:23:16;;;;;;;9.50;4.20;;;;;;;;;;5016055;28;20049;-72
2023/05/03 00:25:43;;;;;;;7.55;4.47;;;;;;;;;;5014707;28;20052;-72
2023/05/03 00:28:09;;;;;;;7.88;4.50;;;;;;;;;;5015909;28;20116;-72
2023/05/03 00:30:35;;;;;;;7.40;4.10;;;;;;;;;;5029548;28;20045;-73
2023/05/03 00:33:01;;;;;;;9.07;4.18;;;;;;;;;;5033450;28;20515;-73
2023/05/03 00:35:27;;;;;;;8.63;4.18;;;;;;;;;;5035662;28;20041;-73
2023/05/03 00:37:53;;;;;;;9.57;4.20;;;;;;;;;;5035461;28;20080;-73
2023/05/03 00:40:19;;;;;;;8.52;3.85;;;;;;;;;;5035295;28;20104;-72
2023/05/03 00:42:45;;;;;;;8.05;4.15;;;;;;;;;;5028093;28;20077;-73
2023/05/03 00:45:12;;;;;;;7.10;3.63;;;;;;;;;;5014078;28;20050;-73
2023/05/03 00:47:38;;;;;;;9.65;3.92;;;;;;;;;;5014067;28;20042;-73
2023/05/03 00:50:04;;;;;;;9.45;3.92;;;;;;;;;;5013011;28;20046;-72
2023/05/03 00:52:30;;;;;;;7.30;3.55;;;;;;;;;;5013529;28;20512;-73
2023/05/03 00:54:57;;;;;;;8.18;3.67;;;;;;;;;;5014516;28;20053;-73
2023/05/03 00:57:23;;;;;;;8.85;3.15;;;;;;;;;;5016143;28;20038;-72
2023/05/03 00:59:49;;;;;;;5.13;2.70;;;;;;;;;;5030607;28;20092;-72
2023/05/03 01:02:15;;;;;;;5.22;2.53;;;;;;;;;;5034873;28;20042;-73
2023/05/03 01:04:42;;;;;;;5.45;2.33;;;;;;;;;;5034718;28;20464;-73
2023/05/03 01:07:12;;;;;;;4.20;2.40;;;;;;;;;;5042685;28;20045;-73
2023/05/03 01:09:47;;;;;;;6.95;2.78;;;;;;;;;;5054639;28;20416;-73
2023/05/03 01:12:35;;;;;;;5.60;2.33;;;;;;;;;;5037603;28;20472;-73
2023/05/03 01:15:07;;;;;;;5.32;2.67;;;;;;;;;;5032411;28;20041;-72
2023/05/03 01:17:39;;;;;;;7.32;3.30;;;;;;;;;;5017003;28;20103;-73
2023/05/03 01:20:07;;;;;;;5.63;2.90;;;;;;;;;;5033435;28;20533;-73
2023/05/03 01:22:37;;;;;;;6.32;2.70;;;;;;;;;;5016732;28;20049;-74
2023/05/03 01:25:06;;;;;;;5.22;2.75;;;;;;;;;;5032917;28;20046;-72
2023/05/03 01:27:33;;;;;;;7.45;2.80;;;;;;;;;;5013798;28;20049;-73
2023/05/03 01:29:59;;;;;;;7.68;2.80;;;;;;;;;;5002696;28;20060;-73
2023/05/03 01:32:45;;;;;;;5.72;2.70;;;;;;;;;;5034571;28;20045;-73
2023/05/03 01:35:11;;;;;;;7.45;2.60;;;;;;;;;;5033669;28;20098;-73
2023/05/03 01:37:37;;;;;;;5.53;2.28;;;;;;;;;;5034295;28;20053;-73
2023/05/03 01:40:04;;;;;;;6.97;2.40;;;;;;;;;;5033958;28;20076;-73
2023/05/03 01:42:31;;;;;;;5.20;2.38;;;;;;;;;;5033332;28;20052;-73
2023/05/03 01:44:58;;;;;;;6.53;2.80;;;;;;;;;;5031489;28;20045;-73
2023/05/03 01:47:25;;;;;;;7.65;3.15;;;;;;;;;;5033919;28;20041;-73
2023/05/03 01:49:51;;;;;;;5.63;2.45;;;;;;;;;;5015692;28;20052;-73
2023/05/03 01:52:17;;;;;;;4.13;2.30;;;;;;;;;;5033970;28;20041;-73
2023/05/03 01:54:43;;;;;;;5.05;2.22;;;;;;;;;;5033773;28;20059;-73
2023/05/03 01:57:09;;;;;;;5.38;2.40;;;;;;;;;;5016067;28;20497;-73
2023/05/03 01:59:35;;;;;;;5.65;2.55;;;;;;;;;;5033046;28;20061;-73
2023/05/03 02:02:01;;;;;;;7.05;2.50;;;;;;;;;;5033459;28;20107;-74
2023/05/03 02:04:28;;;;;;;6.45;2.60;;;;;;;;;;5033342;28;20056;-73
2023/05/03 02:06:55;;;;;;;5.97;2.80;;;;;;;;;;5033842;28;20037;-73
2023/05/03 02:09:21;;;;;;;5.45;2.75;;;;;;;;;;5033294;28;20121;-73
2023/05/03 02:11:47;;;;;;;5.10;2.40;;;;;;;;;;5045944;28;20076;-73
2023/05/03 02:14:13;;;;;;;4.93;2.38;;;;;;;;;;5053743;28;20445;-72
2023/05/03 02:16:40;;;;;;;6.03;2.33;;;;;;;;;;5034863;28;20041;-73
2023/05/03 02:19:07;;;;;;;6.53;2.50;;;;;;;;;;5031467;28;20049;-72
2023/05/03 02:21:33;;;;;;;4.28;2.47;;;;;;;;;;5032420;28;20140;-73
2023/05/03 02:23:59;;;;;;;4.57;2.25;;;;;;;;;;5033694;28;20053;-73
2023/05/03 02:26:26;;;;;;;6.07;2.42;;;;;;;;;;5031934;28;20410;-73
2023/05/03 02:28:52;;;;;;;5.03;2.38;;;;;;;;;;5050719;28;20053;-72
2023/05/03 02:31:18;;;;;;;4.40;2.70;;;;;;;;;;5053252;28;20458;-72
2023/05/03 02:33:44;;;;;;;5.70;2.80;;;;;;;;;;5053114;28;20133;-72
2023/05/03 02:36:10;;;;;;;6.68;2.80;;;;;;;;;;5053440;28;20063;-72
2023/05/03 02:38:36;;;;;;;5.13;2.88;;;;;;;;;;5053218;28;20048;-73
2023/05/03 02:41:02;;;;;;;5.30;2.83;;;;;;;;;;5052893;28;20044;-72
2023/05/03 02:43:28;;;;;;;4.80;2.72;;;;;;;;;;5032289;28;20056;-72
2023/05/03 02:45:54;;;;;;;6.40;2.80;;;;;;;;;;5032926;28;20037;-72
2023/05/03 02:48:20;;;;;;;4.63;2.50;;;;;;;;;;5032518;28;20042;-73
2023/05/03 02:50:46;;;;;;;5.28;3.15;;;;;;;;;;5032318;28;20052;-73
2023/05/03 02:53:12;;;;;;;4.82;2.47;;;;;;;;;;5031222;28;20383;-73
2023/05/03 02:55:39;;;;;;;5.47;2.40;;;;;;;;;;5032950;28;20029;-73
2023/05/03 02:58:05;;;;;;;4.43;2.10;;;;;;;;;;5032662;28;20045;-73
2023/05/03 03:00:31;;;;;;;3.95;2.05;;;;;;;;;;5032318;28;20140;-73
2023/05/03 03:02:57;;;;;;;5.75;2.40;;;;;;;;;;5032226;28;20084;-73
2023/05/03 03:05:23;;;;;;;7.38;2.65;;;;;;;;;;5032652;28;20046;-73
2023/05/03 03:07:49;;;;;;;6.88;2.63;;;;;;;;;;5040589;28;20098;-73
2023/05/03 03:10:15;;;;;;;5.18;2.30;;;;;;;;;;5052351;28;20051;-73
2023/05/03 03:12:41;;;;;;;5.30;2.15;;;;;;;;;;5037872;28;20037;-73
2023/05/03 03:15:08;;;;;;;6.38;2.38;;;;;;;;;;5030375;28;20124;-73
2023/05/03 03:17:37;;;;;;;7.00;2.10;;;;;;;;;;5032369;28;20492;-73
2023/05/03 03:20:05;;;;;;;4.40;1.95;;;;;;;;;;5014536;28;20053;-73
2023/05/03 03:22:31;;;;;;;5.78;2.45;;;;;;;;;;5030632;28;20072;-73
2023/05/03 03:24:57;;;;;;;6.38;1.95;;;;;;;;;;5014194;28;20041;-73
2023/05/03 03:27:23;;;;;;;6.07;2.10;;;;;;;;;;5032377;28;20038;-73
2023/05/03 03:29:49;;;;;;;4.55;2.33;;;;;;;;;;5031791;28;20053;-73
2023/05/03 03:32:16;;;;;;;5.07;2.10;;;;;;;;;;5032553;28;20087;-73
2023/05/03 03:34:42;;;;;;;4.68;2.25;;;;;;;;;;5030625;28;20060;-73
2023/05/03 03:37:08;;;;;;;5.35;2.15;;;;;;;;;;5032218;28;20042;-73
2023/05/03 03:39:34;;;;;;;4.50;2.30;;;;;;;;;;5032163;28;20385;-73
2023/05/03 03:42:01;;;;;;;4.32;2.30;;;;;;;;;;5014211;28;20049;-73
2023/05/03 03:44:27;;;;;;;4.93;2.08;;;;;;;;;;5030902;28;20057;-73
2023/05/03 03:46:53;;;;;;;5.95;2.40;;;;;;;;;;5032561;28;20123;-73
2023/05/03 03:49:19;;;;;;;7.43;2.10;;;;;;;;;;5033028;28;20505;-72
2023/05/03 03:51:45;;;;;;;4.38;2.22;;;;;;;;;;5036550;28;20192;-73
2023/05/03 03:54:11;;;;;;;9.73;2.83;;;;;;;;;;5014819;28;20104;-73
2023/05/03 03:56:37;;;;;;;4.88;2.17;;;;;;;;;;5031393;28;20394;-73
2023/05/03 03:59:03;;;;;;;4.25;2.17;;;;;;;;;;5012771;28;20100;-73
2023/05/03 04:01:29;;;;;;;7.35;2.25;;;;;;;;;;5030386;28;20049;-74
2023/05/03 04:03:55;;;;;;;5.13;1.90;;;;;;;;;;5031933;28;20049;-73
2023/05/03 04:06:21;;;;;;;4.85;2.20;;;;;;;;;;5014364;28;20045;-73
2023/05/03 04:08:47;;;;;;;6.97;2.20;;;;;;;;;;5031522;28;20049;-74
2023/05/03 04:11:13;;;;;;;6.95;2.28;;;;;;;;;;5038706;28;20118;-73
2023/05/03 04:13:40;;;;;;;4.72;2.30;;;;;;;;;;5051956;28;20057;-73
2023/05/03 04:16:06;;;;;;;6.38;2.13;;;;;;;;;;5036702;28;20037;-74
2023/05/03 04:18:32;;;;;;;4.30;2.10;;;;;;;;;;5029812;28;20053;-73
2023/05/03 04:20:58;;;;;;;3.40;1.98;;;;;;;;;;5018530;28;20049;-74
2023/05/03 04:23:24;;;;;;;6.22;2.40;;;;;;;;;;5054730;28;20413;-74
2023/05/03 04:25:51;;;;;;;4.70;1.92;;;;;;;;;;5042468;28;20049;-74
2023/05/03 04:28:18;;;;;;;5.47;2.10;;;;;;;;;;5047612;28;20048;-74
2023/05/03 04:30:45;;;;;;;4.80;2.00;;;;;;;;;;5055402;28;20053;-74
2023/05/03 04:33:12;;;;;;;3.92;2.13;;;;;;;;;;5035594;28;20052;-74
2023/05/03 04:35:38;;;;;;;4.07;2.08;;;;;;;;;;5017818;28;20413;-74
2023/05/03 04:38:04;;;;;;;4.22;2.38;;;;;;;;;;5035309;28;20087;-74
2023/05/03 04:40:30;;;;;;;6.88;2.20;;;;;;;;;;5034818;28;20049;-72
2023/05/03 04:42:56;;;;;;;5.47;2.10;;;;;;;;;;5017122;28;20141;-72
2023/05/03 04:45:22;;;;;;;5.85;2.08;;;;;;;;;;5017068;28;20045;-72
2023/05/03 04:47:48;;;;;;;3.90;1.92;;;;;;;;;;5034841;28;20033;-73
2023/05/03 04:50:15;;;;;;;8.18;2.17;;;;;;;;;;5034492;28;20088;-73
2023/05/03 04:52:41;;;;;;;5.35;1.90;;;;;;;;;;5035431;28;20045;-73
2023/05/03 04:55:07;;;;;;;3.90;1.80;;;;;;;;;;5034563;28;20060;-73
2023/05/03 04:57:33;;;;;;;5.03;2.20;;;;;;;;;;5017639;28;20386;-72
2023/05/03 05:00:00;;;;;;;5.00;2.03;;;;;;;;;;5033811;28;20057;-73
2023/05/03 05:02:26;;;;;;;6.10;2.00;;;;;;;;;;5014960;28;20049;-73
2023/05/03 05:04:53;;;;;;;5.03;1.90;;;;;;;;;;5032349;28;20124;-73
2023/05/03 05:07:19;;;;;;;4.10;1.88;;;;;;;;;;5025562;28;20219;-73
2023/05/03 05:09:45;;;;;;;4.70;1.90;;;;;;;;;;5041662;28;20477;-74
2023/05/03 05:12:11;;;;;;;5.57;1.98;;;;;;;;;;5017076;28;20083;-74
2023/05/03 05:14:37;;;;;;;3.88;1.83;;;;;;;;;;5016896;28;20076;-74
2023/05/03 05:17:03;;;;;;;6.28;1.95;;;;;;;;;;5017098;28;20041;-74
2023/05/03 05:19:29;;;;;;;6.32;1.90;;;;;;;;;;5033804;28;20111;-74
2023/05/03 05:21:55;;;;;;;5.30;1.95;;;;;;;;;;5034210;28;20090;-73
2023/05/03 05:24:21;;;;;;;4.78;2.00;;;;;;;;;;5034333;28;20106;-74
2023/05/03 05:26:48;;;;;;;4.00;1.85;;;;;;;;;;5033891;28;20041;-74
2023/05/03 05:29:14;;;;;;;6.07;1.90;;;;;;;;;;5033691;28;20052;-73
2023/05/03 05:31:40;;;;;;;4.00;1.60;;;;;;;;;;5034450;28;20041;-74
2023/05/03 05:34:06;;;;;;;4.75;1.90;;;;;;;;;;5033577;28;20077;-74
2023/05/03 05:36:32;;;;;;;4.25;1.70;;;;;;;;;;5034311;28;20041;-74
2023/05/03 05:38:58;;;;;;;7.72;2.00;;;;;;;;;;5034530;28;20056;-74
2023/05/03 05:41:24;;;;;;;4.07;1.80;;;;;;;;;;5034396;28;20391;-74
2023/05/03 05:43:50;;;;;;;6.38;1.92;;;;;;;;;;5016267;28;20060;-74
2023/05/03 05:46:19;;;;;;;4.05;1.67;;;;;;;;;;5016720;28;20375;-73
2023/05/03 05:48:46;;;;;;;3.97;1.65;;;;;;;;;;5016116;28;20041;-74
2023/05/03 05:51:12;;;;;;;4.03;1.70;;;;;;;;;;5033988;28;20041;-74
2023/05/03 05:53:38;;;;;;;2.75;1.60;;;;;;;;;;5032426;28;20352;-74
2023/05/03 05:56:05;;;;;;;5.05;1.50;;;;;;;;;;5034177;28;20042;-74
2023/05/03 05:58:31;;;;;;;5.00;1.65;;;;;;;;;;5016107;28;20180;-74
2023/05/03 06:01:00;;;;;;;5.05;1.88;;;;;;;;;;5033888;28;20064;-74
2023/05/03 06:03:26;;;;;;;6.25;1.70;;;;;;;;;;5033843;28;20042;-74
2023/05/03 06:05:52;;;;;;;6.18;1.50;;;;;;;;;;5034057;28;20389;-74
2023/05/03 06:08:18;;;;;;;3.60;1.73;;;;;;;;;;5032612;28;20103;-74
2023/05/03 06:10:44;;;;;;;4.35;1.80;;;;;;;;;;5032228;28;20099;-74
2023/05/03 06:13:11;;;;;;;3.22;1.70;;;;;;;;;;5015777;28;20128;-74
2023/05/03 06:15:37;;;;;;;5.90;1.73;;;;;;;;;;5033582;28;20050;-74
2023/05/03 06:18:03;;;;;;;3.63;1.60;;;;;;;;;;5031317;28;20045;-74
2023/05/03 06:20:29;;;;;;;7.35;1.77;;;;;;;;;;5015739;28;20053;-74
2023/05/03 06:22:55;;;;;;;4.07;1.70;;;;;;;;;;5032117;28;20564;-74
2023/05/03 06:25:21;;;;;;;5.35;1.60;;;;;;;;;;5033682;28;20049;-74
2023/05/03 06:27:47;;;;;;;4.40;1.60;;;;;;;;;;5033368;28;20049;-74
2023/05/03 06:30:13;;;;;;;5.78;1.52;;;;;;;;;;5031615;28;20464;-74
2023/05/03 06:32:41;;;;;;;3.63;1.50;;;;;;;;;;5033249;28;20050;-74
2023/05/03 06:35:08;;;;;;;3.22;1.40;;;;;;;;;;5032294;28;20057;-74
2023/05/03 06:37:34;;;;;;;3.35;1.90;;;;;;;;;;5033883;28;20486;-73
2023/05/03 06:40:00;;;;;;;4.63;1.60;;;;;;;;;;5036017;28;20064;-73
2023/05/03 06:42:26;;;;;;;3.75;1.60;;;;;;;;;;5032166;28;20037;-75
2023/05/03 06:44:52;;;;;;;5.35;1.70;;;;;;;;;;5030971;28;20045;-74
2023/05/03 06:47:20;;;;;;;2.85;1.52;;;;;;;;;;5031189;28;20053;-74
2023/05/03 06:49:46;;;;;;;2.65;1.50;;;;;;;;;;5031579;28;20054;-75
2023/05/03 06:52:12;;;;;;;2.80;1.60;;;;;;;;;;5032963;28;20080;-74
2023/05/03 06:54:39;;;;;;;7.75;1.90;;;;;;;;;;5032878;28;20092;-73
2023/05/03 06:57:06;;;;;;;4.72;1.70;;;;;;;;;;5031022;28;20049;-73
2023/05/03 06:59:32;;;;;;;6.43;1.65;;;;;;;;;;5010437;28;20050;-73
2023/05/03 07:01:58;;;;;;;3.35;1.63;;;;;;;;;;5032435;28;20565;-73
2023/05/03 07:04:24;;;;;;;3.10;1.60;;;;;;;;;;5032609;28;20088;-74
2023/05/03 07:06:50;;;;;;;4.78;1.50;;;;;;;;;;5012813;28;20037;-74
2023/05/03 07:09:17;;;;;;;4.72;1.90;;;;;;;;;;5032373;28;20453;-74
2023/05/03 07:11:48;;;;;;;4.15;1.60;;;;;;;;;;5032192;28;20118;-74
2023/05/03 07:14:14;;;;;;;3.72;1.70;;;;;;;;;;5030947;28;20056;-74
2023/05/03 07:16:41;;;;;;;5.38;1.80;;;;;;;;;;5032585;28;20099;-74
2023/05/03 07:19:07;;;;;;;5.13;1.70;;;;;;;;;;5032388;28;20049;-74
2023/05/03 07:21:33;;;;;;;3.78;1.60;;;;;;;;;;5014394;28;20043;-74
2023/05/03 07:23:59;;;;;;;6.57;1.95;;;;;;;;;;5032292;28;20053;-74
2023/05/03 07:26:26;;;;;;;5.72;1.60;;;;;;;;;;5032190;28;20154;-74
2023/05/03 07:28:54;;;;;;;3.13;1.50;;;;;;;;;;5032143;28;20046;-74
2023/05/03 07:31:23;;;;;;;3.25;1.50;;;;;;;;;;5014490;28;20041;-74
2023/05/03 07:33:49;;;;;;;3.80;1.50;;;;;;;;;;5032060;28;20072;-74
2023/05/03 07:36:15;;;;;;;3.10;1.45;;;;;;;;;;5031985;28;20037;-74
2023/05/03 07:38:41;;;;;;;4.75;1.63;;;;;;;;;;5032428;28;20076;-73
2023/05/03 07:41:09;;;;;;;5.80;1.40;;;;;;;;;;5032102;28;20088;-73
2023/05/03 07:43:35;;;;;;;4.43;1.50;;;;;;;;;;5014468;28;20045;-74
2023/05/03 07:46:01;;;;;;;4.43;1.42;;;;;;;;;;5032030;28;20140;-74
2023/05/03 07:48:27;;;;;;;3.45;1.67;;;;;;;;;;5031738;28;20533;-74
2023/05/03 07:50:53;;;;;;;4.50;1.40;;;;;;;;;;5030399;28;20095;-74
2023/05/03 07:53:19;;;;;;;4.90;1.50;;;;;;;;;;5031369;28;20045;-74
2023/05/03 07:55:45;;;;;;;5.63;1.70;;;;;;;;;;5014135;28;20057;-75
2023/05/03 07:58:11;;;;;;;4.72;1.33;;;;;;;;;;5034340;28;20048;-74
2023/05/03 08:00:37;;;;;;;4.47;1.42;;;;;;;;;;5035623;28;20412;-74
2023/05/03 08:03:04;;;;;;;5.55;1.45;;;;;;;;;;5035390;28;20089;-75
2023/05/03 08:05:30;;;;;;;2.78;1.40;;;;;;;;;;5018064;28;20490;-75
2023/05/03 08:07:56;;;;;;;4.55;1.30;;;;;;;;;;5035690;28;20049;-75
2023/05/03 08:10:22;;;;;;;3.50;1.40;;;;;;;;;;5034032;28;20386;-75
2023/05/03 08:12:49;;;;;;;5.57;1.73;;;;;;;;;;5017135;28;20050;-75
2023/05/03 08:15:15;;;;;;;5.20;1.80;;;;;;;;;;5034234;28;20156;-75
2023/05/03 08:17:45;;;;;;;6.30;1.70;;;;;;;;;;5032366;28;20124;-75
2023/05/03 08:20:12;;;;;;;5.03;1.60;;;;;;;;;;5034383;28;20042;-75
2023/05/03 08:22:39;;;;;;;8.65;1.73;;;;;;;;;;5034216;28;20065;-75
2023/05/03 08:25:06;;;;;;;6.80;2.03;;;;;;;;;;5035434;28;20045;-75
2023/05/03 08:27:33;;;;;;;3.25;1.50;;;;;;;;;;5035189;28;20050;-75
2023/05/03 08:30:00;;;;;;;5.00;1.70;;;;;;;;;;5033928;28;20041;-74
2023/05/03 08:32:26;;;;;;;4.97;1.67;;;;;;;;;;5032248;28;20092;-74
2023/05/03 08:34:53;;;;;;;3.58;1.40;;;;;;;;;;5017187;28;20506;-75
2023/05/03 08:37:20;;;;;;;3.17;1.45;;;;;;;;;;5034309;28;20044;-74
2023/05/03 08:39:46;;;;;;;5.40;1.63;;;;;;;;;;5017326;28;20079;-74
2023/05/03 08:42:13;;;;;;;7.22;1.75;;;;;;;;;;5033322;28;20052;-74
2023/05/03 08:44:44;;;;;;;3.97;1.67;;;;;;;;;;5034041;28;20041;-75
2023/05/03 08:47:10;;;;;;;4.22;1.50;;;;;;;;;;5035096;28;20041;-74
2023/05/03 08:49:37;;;;;;;3.90;1.60;;;;;;;;;;5033274;28;20537;-75
2023/05/03 08:52:05;;;;;;;4.22;1.50;;;;;;;;;;5034578;28;20049;-76
2023/05/03 08:54:31;;;;;;;4.63;1.60;;;;;;;;;;5016601;28;20124;-75
2023/05/03 08:56:57;;;;;;;4.93;1.77;;;;;;;;;;5034585;28;20093;-75
2023/05/03 08:59:24;;;;;;;3.42;1.63;;;;;;;;;;5033839;28;20155;-75
2023/05/03 09:01:51;;;;;;;3.72;1.70;;;;;;;;;;5034787;28;20076;-75
2023/05/03 09:04:17;;;;;;;3.75;1.60;;;;;;;;;;5019182;28;20042;-75
2023/05/03 09:06:43;;;;;;;3.85;1.60;;;;;;;;;;5033038;28;20049;-74
2023/05/03 09:09:09;;;;;;;4.40;1.55;;;;;;;;;;5033645;28;20091;-75
2023/05/03 09:11:37;;;;;;;3.45;1.67;;;;;;;;;;5034607;28;20050;-74
2023/05/03 09:14:13;;;;;;;6.22;1.60;;;;;;;;;;5033206;28;20045;-75
2023/05/03 09:16:40;;;;;;;3.72;1.67;;;;;;;;;;5034578;28;20093;-75
2023/05/03 09:19:08;;;;;;;4.35;1.60;;;;;;;;;;5033137;28;20057;-75
2023/05/03 09:21:38;;;;;;;5.00;1.80;;;;;;;;;;4999640;28;20049;-74
2023/05/03 09:24:16;;;;;;;3.95;2.00;;;;;;;;;;5034387;28;20041;-74
2023/05/03 09:26:42;;;;;;;3.75;2.00;;;;;;;;;;5034720;28;20041;-74
2023/05/03 09:29:09;;;;;;;4.80;1.90;;;;;;;;;;5036981;28;20460;-73
2023/05/03 09:31:35;;;;;;;4.95;1.98;;;;;;;;;;5037480;28;20101;-75
2023/05/03 09:34:03;;;;;;;4.22;1.70;;;;;;;;;;5034945;28;20386;-74
2023/05/03 09:36:44;;;;;;;4.60;1.98;;;;;;;;;;5033857;28;20041;-75
2023/05/03 09:39:17;;;;;;;5.35;1.83;;;;;;;;;;5050063;28;20150;-75
2023/05/03 09:41:43;;;;;;;3.08;1.75;;;;;;;;;;5034593;28;20155;-75
2023/05/03 09:44:09;;;;;;;4.75;1.80;;;;;;;;;;5033035;28;20103;-74
2023/05/03 09:46:36;;;;;;;6.15;1.98;;;;;;;;;;5033714;28;20045;-75
2023/05/03 09:49:02;;;;;;;6.55;1.88;;;;;;;;;;5033826;28;20124;-75
2023/05/03 09:51:28;;;;;;;4.95;1.90;;;;;;;;;;5033709;28;20128;-73
2023/05/03 09:53:56;;;;;;;4.28;1.75;;;;;;;;;;5033135;28;20394;-74
2023/05/03 09:56:25;;;;;;;4.57;1.70;;;;;;;;;;5015043;28;20079;-75
2023/05/03 09:58:51;;;;;;;3.00;1.73;;;;;;;;;;5033145;28;20061;-75
2023/05/03 10:01:17;;;;;;;5.18;1.90;;;;;;;;;;5033489;28;20481;-74
2023/05/03 10:03:46;;;;;;;4.30;1.75;;;;;;;;;;5016088;28;20068;-75
2023/05/03 10:06:30;;;;;;;5.85;1.88;;;;;;;;;;5015843;28;20129;-75
2023/05/03 10:09:01;;;;;;;4.00;1.83;;;;;;;;;;5015795;28;20056;-75
2023/05/03 10:11:27;;;;;;;4.32;1.83;;;;;;;;;;5033224;28;20099;-75
2023/05/03 10:13:54;;;;;;;3.65;1.63;;;;;;;;;;5014325;28;20050;-75
2023/05/03 10:16:23;;;;;;;7.88;1.90;;;;;;;;;;5031587;28;20128;-74
2023/05/03 10:19:04;;;;;;;4.70;1.70;;;;;;;;;;5033020;28;20453;-74
2023/05/03 10:21:37;;;;;;;7.20;2.08;;;;;;;;;;5032904;28;20090;-75
2023/05/03 10:24:13;;;;;;;6.32;1.70;;;;;;;;;;5033144;28;20038;-75
2023/05/03 10:26:46;;;;;;;5.97;1.80;;;;;;;;;;5033401;28;20075;-75
2023/05/03 10:29:31;;;;;;;4.88;1.80;;;;;;;;;;5015011;28;20053;-75
2023/05/03 10:31:57;;;;;;;4.97;1.88;;;;;;;;;;5015396;28;20045;-75
2023/05/03 10:34:24;;;;;;;7.80;1.75;;;;;;;;;;5015118;28;20041;-75
2023/05/03 10:36:52;;;;;;;4.80;1.50;;;;;;;;;;5033195;28;20049;-74
2023/05/03 10:39:18;;;;;;;6.85;1.90;;;;;;;;;;5032848;28;20041;-74
2023/05/03 10:41:45;;;;;;;4.85;2.00;;;;;;;;;;5015288;28;20445;-75
2023/05/03 10:44:46;;;;;;;3.95;1.85;;;;;;;;;;5015074;28;20042;-75
2023/05/03 10:47:13;;;;;;;5.57;1.92;;;;;;;;;;5009048;28;20046;-73
2023/05/03 10:49:39;;;;;;;5.35;1.75;;;;;;;;;;5025871;28;20057;-73
2023/05/03 10:52:44;;;;;;;7.85;1.95;;;;;;;;;;5032828;28;20092;-73
2023/05/03 10:55:10;;;;;;;6.10;1.73;;;;;;;;;;5010170;28;20057;-74
2023/05/03 10:57:37;;;;;;;3.75;1.67;;;;;;;;;;5010626;28;20047;-75
2023/05/03 11:00:13;;;;;;;3.83;1.60;;;;;;;;;;5020593;28;20057;-72
2023/05/03 11:02:59;;;;;;;6.20;1.75;;;;;;;;;;5031192;28;20061;-74
2023/05/03 11:05:28;;;;;;;3.78;1.60;;;;;;;;;;5032380;28;20041;-74
2023/05/03 11:08:07;;;;;;;5.80;1.70;;;;;;;;;;5032523;28;20049;-74
2023/05/03 11:10:33;;;;;;;5.20;1.92;;;;;;;;;;5032424;28;20049;-74
2023/05/03 11:12:59;;;;;;;5.95;1.90;;;;;;;;;;5030935;28;20052;-74
2023/05/03 11:15:25;;;;;;;6.13;2.17;;;;;;;;;;5032403;28;20502;-74
2023/05/03 11:17:51;;;;;;;3.97;1.70;;;;;;;;;;5031058;28;20057;-73
2023/05/03 11:20:18;;;;;;;4.47;1.80;;;;;;;;;;5032039;28;20054;-74
2023/05/03 11:22:45;;;;;;;5.65;1.83;;;;;;;;;;5032074;28;20076;-75
2023/05/03 11:25:11;;;;;;;4.40;2.00;;;;;;;;;;5030730;28;20053;-75
2023/05/03 11:27:37;;;;;;;3.50;1.63;;;;;;;;;;5032559;28;20099;-75
2023/05/03 11:30:05;;;;;;;6.47;1.80;;;;;;;;;;5030440;28;20045;-74
2023/05/03 11:32:32;;;;;;;4.75;1.60;;;;;;;;;;5031753;28;20095;-74
2023/05/03 11:35:02;;;;;;;4.82;2.03;;;;;;;;;;5032146;28;20095;-75
2023/05/03 11:37:28;;;;;;;3.45;1.50;;;;;;;;;;5032047;28;20050;-74
2023/05/03 11:39:54;;;;;;;4.22;1.58;;;;;;;;;;5031695;28;20049;-73
2023/05/03 11:42:20;;;;;;;4.00;1.50;;;;;;;;;;5030864;28;20037;-75
2023/05/03 11:44:46;;;;;;;7.00;1.70;;;;;;;;;;5032037;28;20470;-74
2023/05/03 11:47:13;;;;;;;5.00;1.90;;;;;;;;;;5032071;28;20037;-74
2023/05/03 11:49:39;;;;;;;5.45;1.83;;;;;;;;;;5031649;28;20041;-74
2023/05/03 11:52:05;;;;;;;4.47;1.83;;;;;;;;;;5032594;28;20073;-75
2023/05/03 11:54:31;;;;;;;7.63;1.90;;;;;;;;;;5031489;28;20052;-74
2023/05/03 11:57:00;;;;;;;6.88;1.90;;;;;;;;;;5030755;28;20373;-74
2023/05/03 11:59:37;;;;;;;2.85;1.60;;;;;;;;;;5031639;28;20498;-76
2023/05/03 12:02:04;;;;;;;3.78;1.92;;;;;;;;;;5032066;28;20049;-75
2023/05/03 12:04:30;;;;;;;4.72;1.60;;;;;;;;;;5032410;28;20103;-75
2023/05/03 12:06:56;;;;;;;4.32;1.73;;;;;;;;;;5031762;28;20053;-75
2023/05/03 12:09:24;;;;;;;6.85;2.10;;;;;;;;;;5031424;28;20482;-74
2023/05/03 12:11:50;;;;;;;4.30;1.70;;;;;;;;;;5032160;28;20355;-75
2023/05/03 12:14:16;;;;;;;5.65;2.00;;;;;;;;;;5031455;28;20049;-75
2023/05/03 12:16:46;;;;;;;6.38;2.03;;;;;;;;;;5030711;28;20072;-74
2023/05/03 12:19:22;;;;;;;7.30;2.13;;;;;;;;;;5031689;28;20048;-74
2023/05/03 12:21:48;;;;;;;4.38;1.90;;;;;;;;;;5031845;28;20073;-75
2023/05/03 12:24:18;;;;;;;5.40;2.10;;;;;;;;;;5030555;28;20096;-75
2023/05/03 12:26:47;;;;;;;7.57;2.00;;;;;;;;;;5014544;28;20045;-74
2023/05/03 12:29:14;;;;;;;3.58;1.70;;;;;;;;;;5033703;28;20128;-73
2023/05/03 12:31:40;;;;;;;4.90;2.00;;;;;;;;;;5016851;28;20045;-74
2023/05/03 12:34:06;;;;;;;5.57;2.03;;;;;;;;;;5032936;28;20045;-73
2023/05/03 12:36:32;;;;;;;6.47;2.10;;;;;;;;;;5030620;28;20050;-74
2023/05/03 12:38:59;;;;;;;4.93;2.00;;;;;;;;;;5014630;28;20041;-74
2023/05/03 12:41:28;;;;;;;4.28;2.20;;;;;;;;;;5032079;28;20041;-74
2023/05/03 12:43:55;;;;;;;6.38;2.05;;;;;;;;;;5032238;28;20049;-75
2023/05/03 12:46:25;;;;;;;5.07;1.95;;;;;;;;;;5035363;28;20120;-76
2023/05/03 12:48:52;;;;;;;5.18;1.90;;;;;;;;;;5033873;28;20037;-75
2023/05/03 12:51:18;;;;;;;4.32;1.88;;;;;;;;;;5034963;28;20444;-75
2023/05/03 12:53:45;;;;;;;5.53;2.10;;;;;;;;;;5017299;28;20033;-75
2023/05/03 12:56:11;;;;;;;5.38;1.90;;;;;;;;;;5035231;28;20053;-74
2023/05/03 12:58:37;;;;;;;3.90;1.80;;;;;;;;;;5033399;28;20045;-73
2023/05/03 13:01:03;;;;;;;4.28;1.95;;;;;;;;;;5034822;28;20132;-74
2023/05/03 13:03:30;;;;;;;6.50;1.80;;;;;;;;;;5034940;28;20049;-74
2023/05/03 13:05:56;;;;;;;4.90;1.90;;;;;;;;;;5034789;28;20049;-75
2023/05/03 13:08:22;;;;;;;3.78;1.80;;;;;;;;;;5031985;28;20045;-74
2023/05/03 13:10:49;;;;;;;6.80;2.17;;;;;;;;;;5033562;28;20136;-75
2023/05/03 13:13:15;;;;;;;4.00;2.10;;;;;;;;;;5033991;28;20085;-75
2023/05/03 13:15:42;;;;;;;3.50;1.75;;;;;;;;;;5033162;28;20091;-75
2023/05/03 13:18:08;;;;;;;5.13;1.65;;;;;;;;;;5034747;28;20053;-75
2023/05/03 13:20:36;;;;;;;6.30;2.10;;;;;;;;;;5033153;28;20057;-75
2023/05/03 13:23:03;;;;;;;6.22;1.95;;;;;;;;;;5034646;28;20041;-73
2023/05/03 13:25:29;;;;;;;5.45;2.10;;;;;;;;;;5033687;28;20065;-74
2023/05/03 13:27:56;;;;;;;5.68;2.10;;;;;;;;;;5016103;28;20128;-74
2023/05/03 13:30:22;;;;;;;4.25;2.10;;;;;;;;;;5032949;28;20536;-74
2023/05/03 13:32:51;;;;;;;6.30;2.15;;;;;;;;;;5034506;28;20100;-74
2023/05/03 13:35:18;;;;;;;5.25;2.20;;;;;;;;;;5034343;28;20386;-74
2023/05/03 13:37:45;;;;;;;4.63;2.10;;;;;;;;;;5034218;28;20150;-74
2023/05/03 13:40:13;;;;;;;4.22;2.00;;;;;;;;;;5016476;28;20045;-74
2023/05/03 13:42:39;;;;;;;7.95;2.20;;;;;;;;;;5033937;28;20182;-74
2023/05/03 13:45:05;;;;;;;5.68;2.20;;;;;;;;;;5033786;28;20049;-73
2023/05/03 13:47:31;;;;;;;5.18;2.10;;;;;;;;;;5033953;28;20083;-74
2023/05/03 13:49:58;;;;;;;4.43;2.10;;;;;;;;;;5033644;28;20125;-74
2023/05/03 13:52:24;;;;;;;4.32;2.33;;;;;;;;;;5034477;28;20050;-74
2023/05/03 13:54:51;;;;;;;6.68;2.25;;;;;;;;;;5033157;28;20075;-74
2023/05/03 13:57:17;;;;;;;5.63;2.00;;;;;;;;;;5034065;28;20465;-74
2023/05/03 13:59:43;;;;;;;6.53;2.08;;;;;;;;;;5033349;28;20093;-74
2023/05/03 14:02:09;;;;;;;4.00;1.90;;;;;;;;;;5032810;28;20045;-74
2023/05/03 14:04:35;;;;;;;3.90;1.90;;;;;;;;;;5033589;28;20101;-74
2023/05/03 14:07:02;;;;;;;3.67;1.77;;;;;;;;;;5033749;28;20063;-74
2023/05/03 14:09:28;;;;;;;6.38;2.22;;;;;;;;;;5029276;28;20111;-74
2023/05/03 14:11:55;;;;;;;4.50;2.10;;;;;;;;;;5033662;28;20091;-74
2023/05/03 14:14:21;;;;;;;5.65;2.30;;;;;;;;;;5032331;28;20045;-74
2023/05/03 14:16:47;;;;;;;3.75;2.00;;;;;;;;;;5031701;28;20410;-75
2023/05/03 14:19:16;;;;;;;4.78;2.25;;;;;;;;;;5031401;28;20081;-74
2023/05/03 14:21:43;;;;;;;6.30;2.60;;;;;;;;;;5033460;28;20042;-74
2023/05/03 14:24:10;;;;;;;4.68;2.10;;;;;;;;;;5033217;28;20049;-75
2023/05/03 14:26:36;;;;;;;5.30;2.10;;;;;;;;;;5033024;28;20042;-74
2023/05/03 14:29:04;;;;;;;4.32;1.95;;;;;;;;;;5030194;28;20052;-74
2023/05/03 14:31:31;;;;;;;5.53;2.20;;;;;;;;;;5032764;28;20053;-74
2023/05/03 14:33:58;;;;;;;5.93;2.13;;;;;;;;;;5015195;28;20053;-73
2023/05/03 14:36:24;;;;;;;4.03;2.20;;;;;;;;;;5033048;28;20553;-72
2023/05/03 14:38:50;;;;;;;5.38;2.40;;;;;;;;;;5014660;28;20052;-73
2023/05/03 14:41:16;;;;;;;4.57;2.08;;;;;;;;;;5031957;28;20037;-74
2023/05/03 14:43:42;;;;;;;8.35;2.45;;;;;;;;;;5030838;28;20041;-74